• Join FlightAware (Why Join?)
  • Login
  • US Flag 
01:06AM EDT


 

Airport Tracker/Info


-or-


 

Live Flight TrackerFlight Track Log ✈ AWE3343 ✈ 05-Feb-2014 ✈ KDCA - KMHT

Flight Track Log - Related Links

Times and Time Zones

All times are in EST time to prevent confusion due to time zone crossing. See the AWE3343 flight status page for this flight to view local times or setup timezone preferences in your user account.

Time Position Orientation Groundspeed Altitude Reporting Facility
EST Latitude Longitude Course Direction KTS MPH feet Rate Location/Type
03:37PM 38.8833 -77.0667 57° Northeast 142 163 2,500  Level Potomac TRACON
03:38PM 38.9333 -77.1167 322° Northwest 186 214 4,100 2,220 Climbing Potomac TRACON
03:39PM 39.0364 -76.5091 63° Northeast  Level FlightAware Approximate
03:40PM 39.0900 -76.3789 61° Northeast  Level FlightAware Approximate
03:40PM 39.0372 -77.1069 North 185 213 9,900  Level Washington Center
03:41PM 39.1278 -76.2444 57° Northeast  Level FlightAware Approximate
03:41PM 39.0533 -76.9817 81° East 238 274 11,200  Level Washington Center
03:42PM 39.0717 -76.8403 80° East 352 405 12,600 1,800 Climbing Washington Center
03:43PM 39.0919 -76.6856 80° East 387 445 14,800 2,040 Climbing Washington Center
03:44PM 39.1119 -76.5306 81° East 423 487 16,800 1,980 Climbing Washington Center
03:45PM 39.1317 -76.3703 81° East 443 510 18,900 1,800 Climbing Washington Center
03:46PM 39.1514 -76.2072 81° East 453 521 20,500 1,380 Climbing Washington Center
03:47PM 39.1708 -76.0600 80° East 458 527 21,700 1,320 Climbing Washington Center
03:48PM 39.1986 -75.8942 78° East 469 540 23,200 1,500 Climbing Washington Center
03:49PM 39.2822 -75.7606 51° Northeast 453 521 24,800 1,320 Climbing Washington Center
03:50PM 39.3803 -75.6372 44° Northeast 468 539 25,900 1,260 Climbing Washington Center
03:51PM 39.4803 -75.5108 44° Northeast 479 551 27,400 900 Climbing Washington Center
03:53PM 39.7069 -75.2097 46° Northeast 489 563 29,000 480 Climbing New York Center
03:54PM 39.7908 -75.0853 49° Northeast 496 571 29,000  Level New York Center
03:55PM 39.8850 -74.9558 47° Northeast 502 578 29,000  Level New York Center
03:56PM 39.9881 -74.8103 47° Northeast 497 572 29,000  Level New York Center
03:57PM 40.0822 -74.6775 47° Northeast 497 572 29,000  Level New York Center
03:58PM 40.1897 -74.5747 36° Northeast 491 565 29,000  Level New York Center
03:59PM 40.2992 -74.5400 14° North 447 514 29,000  Level New York Center
04:00PM 40.4211 -74.5058 12° North 447 514 29,000  Level New York Center
04:03PM 40.6875 -74.4286 12° North 453 521 29,000  Level Boston Center
04:03PM 40.8344 -74.3844 13° North 451 519 29,000  Level Boston Center
04:05PM 40.9519 -74.3514 12° North 452 520 29,000  Level Boston Center
04:06PM 41.0747 -74.3131 13° North 453 521 29,000  Level Boston Center
04:07PM 41.1981 -74.2753 13° North 454 522 29,000  Level Boston Center
04:08PM 41.3217 -74.2392 12° North 454 522 29,000  Level Boston Center
04:09PM 41.4472 -74.2006 13° North 459 528 29,000  Level Boston Center
04:10PM 41.5719 -74.1642 12° North 459 528 29,000  Level Boston Center
04:11PM 41.6961 -74.1261 13° North 458 527 29,000 -300 Level Boston Center
04:12PM 41.8114 -74.0894 13° North 458 527 28,500 -840 Descending Boston Center
04:13PM 41.9350 -74.0528 12° North 457 526 27,400 -1,200 Descending Boston Center
04:14PM 42.0572 -74.0058 16° North 457 526 26,100 -1,560 Descending Boston Center
04:15PM 42.1644 -73.8372 49° Northeast 497 572 24,300 -1,500 Descending Boston Center
04:16PM 42.2153 -73.6914 65° Northeast 496 571 23,100 -1,380 Descending Boston Center
04:17PM 42.2722 -73.5275 65° Northeast 486 559 21,600 -1,560 Descending Boston Center
04:18PM 42.3289 -73.3686 64° Northeast 473 544 20,100 -1,440 Descending Boston Center
04:19PM 42.3903 -73.1925 65° Northeast 443 510 18,700 -1,500 Descending Boston Center
04:20PM 42.4378 -73.0542 65° Northeast 412 474 17,100 -1,380 Descending Boston Center
04:21PM 42.4822 -72.9228 65° Northeast 399 459 16,000 -1,380 Descending Boston Center
04:22PM 42.5247 -72.8017 65° Northeast 366 421 14,400 -1,380 Descending Boston Center
04:23PM 42.5650 -72.6806 66° East 355 409 13,300 -1,020 Descending Boston Center
04:24PM 42.6006 -72.5817 64° Northeast 344 396 12,400 -900 Descending Boston Center
04:25PM 42.6403 -72.4656 65° Northeast 341 392 11,500 -960 Descending Boston Center
04:26PM 42.6856 -72.3317 65° Northeast 330 380 10,500 -1,200 Descending Boston Center
04:27PM 42.7239 -72.2211 65° Northeast 323 372 9,100 -840 Descending Boston Center
04:28PM 42.7597 -72.1111 66° East 320 368 8,900 -720 Descending Boston Center
04:29PM 42.7825 -72.0003 74° East 304 350 7,700 -1,200 Descending Boston Center
04:30PM 42.7772 -71.8931 94° East 285 328 6,500 -1,140 Descending Boston Center
04:31PM 42.7739 -71.7983 93° East 250 288 5,500 -1,260 Descending Boston Center
04:32PM 42.7708 -71.7144 93° East 224 258 4,000 -1,500 Descending Boston Center
04:33PM 42.7675 -71.6267 93° East 217 250 2,500 -780 Descending Boston Center
04:34PM 42.7650 -71.5533 93° East 197 227 2,500  Level Boston Center
04:35PM 42.7625 -71.4975 93° East 153 176 2,500 -240 Level Boston Center
04:36PM 42.7608 -71.4403 92° East 151 174 2,100 -300 Descending Boston Center
04:37PM 42.7633 -71.3850 86° East 147 169 2,000 -60 Descending Boston Center
04:38PM 42.7911 -71.3519 41° Northeast 148 170 2,000  Level Boston Center
04:39PM 42.8303 -71.3739 338° Northwest 154 177 2,000 -300 Level Boston Center
04:40PM 42.8669 -71.3950 337° Northwest 144 166 1,500 -600 Descending Boston Center
04:41PM 42.8983 -71.4136 337° Northwest 126 145 800 -600 Descending Boston Center
04:42PM 42.9275 -71.4325 335° Northwest 130 150 400 -420 Descending Boston Center